Time;durP1;ratioP1;P1;durP2;ratioP2;P2;SDS_P1;SDS_P2;PMS_P1;PMS_P2;Temp;Humidity;BMP_temperature;BMP_pressure;BME280_temperature;BME280_humidity;BME280_pressure;Samples;Min_cycle;Max_cycle;Signal;HPM_P1;HPM_P2
2022/06/13 00:01:59;;;;;;;11.45;4.85;;;13.50;99.90;;;;;;5032157;28;20055;-74
2022/06/13 00:04:24;;;;;;;11.77;5.38;;;13.50;99.90;;;;;;5032057;28;20084;-74
2022/06/13 00:06:50;;;;;;;8.45;4.90;;;13.50;99.90;;;;;;5032213;28;20056;-74
2022/06/13 00:09:15;;;;;;;8.18;5.28;;;13.40;99.90;;;;;;5032064;28;20038;-74
2022/06/13 00:11:41;;;;;;;12.93;5.45;;;13.40;99.90;;;;;;5015673;28;20063;-74
2022/06/13 00:14:07;;;;;;;13.93;5.63;;;13.40;99.90;;;;;;5031969;28;20048;-74
2022/06/13 00:16:34;;;;;;;11.45;4.68;;;13.30;99.90;;;;;;5015651;28;20414;-74
2022/06/13 00:19:00;;;;;;;10.85;5.22;;;13.30;99.90;;;;;;5031943;28;20045;-74
2022/06/13 00:21:34;;;;;;;11.35;5.13;;;13.30;99.90;;;;;;5032056;28;20040;-74
2022/06/13 00:24:03;;;;;;;9.07;5.85;;;13.20;99.90;;;;;;5031786;28;20053;-74
2022/06/13 00:26:31;;;;;;;9.68;5.32;;;13.20;99.90;;;;;;5032215;28;20036;-73
2022/06/13 00:28:57;;;;;;;8.88;4.95;;;13.20;99.90;;;;;;5015473;28;20474;-73
2022/06/13 00:31:23;;;;;;;10.35;5.30;;;13.10;99.90;;;;;;5031942;28;20048;-73
2022/06/13 00:33:49;;;;;;;9.90;5.40;;;13.10;99.90;;;;;;5032083;28;20091;-73
2022/06/13 00:36:15;;;;;;;9.25;5.28;;;13.10;99.90;;;;;;5031908;28;20488;-73
2022/06/13 00:38:42;;;;;;;8.65;5.30;;;13.10;99.90;;;;;;5032001;28;20041;-73
2022/06/13 00:41:14;;;;;;;10.00;5.10;;;13.10;99.90;;;;;;5031823;28;20470;-74
2022/06/13 00:43:42;;;;;;;10.00;4.95;;;13.10;99.90;;;;;;5015250;28;20076;-73
2022/06/13 00:46:31;;;;;;;10.88;5.80;;;13.10;99.90;;;;;;5031922;28;20051;-73
2022/06/13 00:49:19;;;;;;;9.60;4.93;;;13.10;99.90;;;;;;5031592;28;20561;-74
2022/06/13 00:52:19;;;;;;;8.88;5.13;;;13.10;99.90;;;;;;5034177;28;20036;-74
2022/06/13 00:54:47;;;;;;;11.30;5.53;;;13.10;99.90;;;;;;5003218;28;20119;-74
2022/06/13 00:57:18;;;;;;;14.05;5.80;;;13.10;99.90;;;;;;5035680;28;20238;-74
2022/06/13 00:59:44;;;;;;;9.00;4.80;;;13.00;99.90;;;;;;5035495;28;20479;-74
2022/06/13 01:02:10;;;;;;;10.80;5.40;;;13.10;99.90;;;;;;5035519;28;20119;-74
2022/06/13 01:04:37;;;;;;;8.82;5.03;;;13.00;99.90;;;;;;5035038;28;20530;-74
2022/06/13 01:07:03;;;;;;;11.00;5.20;;;13.00;99.90;;;;;;5035164;28;20410;-74
2022/06/13 01:12:15;;;;;;;9.45;5.97;;;13.00;99.90;;;;;;5035201;28;20471;-74
2022/06/13 01:15:10;;;;;;;10.48;4.65;;;13.00;99.90;;;;;;5018542;28;20037;-74
2022/06/13 01:17:50;;;;;;;11.68;5.15;;;13.00;99.90;;;;;;5034983;28;20088;-74
2022/06/13 01:20:45;;;;;;;10.93;5.30;;;13.00;99.90;;;;;;5034943;28;20131;-74
2022/06/13 01:23:38;;;;;;;11.68;5.55;;;13.00;99.90;;;;;;5034668;28;20131;-74
2022/06/13 01:26:18;;;;;;;12.80;5.57;;;13.00;99.90;;;;;;5034878;28;20057;-74
2022/06/13 01:29:27;;;;;;;12.43;5.30;;;13.00;99.90;;;;;;5034650;28;20047;-74
2022/06/13 01:32:11;;;;;;;10.10;5.07;;;13.00;99.90;;;;;;5034764;28;20049;-74
2022/06/13 01:35:07;;;;;;;12.20;6.13;;;13.00;99.90;;;;;;5034731;28;20037;-74
2022/06/13 01:38:05;;;;;;;9.75;5.40;;;12.90;99.90;;;;;;5034819;28;20525;-74
2022/06/13 01:40:54;;;;;;;13.50;5.57;;;12.80;99.90;;;;;;5017970;28;20048;-74
2022/06/13 01:43:23;;;;;;;11.07;5.40;;;12.80;99.90;;;;;;5034481;28;20039;-74
2022/06/13 01:46:05;;;;;;;13.77;5.75;;;12.70;99.90;;;;;;5034330;28;20561;-74
2022/06/13 01:48:47;;;;;;;10.40;5.15;;;12.70;99.90;;;;;;5017983;28;20120;-74
2022/06/13 01:51:34;;;;;;;11.82;5.25;;;12.70;99.90;;;;;;5018005;28;20102;-74
2022/06/13 01:54:38;;;;;;;13.80;6.00;;;12.70;99.90;;;;;;5034422;28;20045;-74
2022/06/13 01:57:25;;;;;;;9.43;4.95;;;12.70;99.90;;;;;;5034267;28;20041;-74
2022/06/13 02:00:04;;;;;;;7.30;4.70;;;12.70;99.90;;;;;;5017603;28;20128;-74
2022/06/13 02:02:43;;;;;;;11.88;5.45;;;12.70;99.90;;;;;;5033984;28;20036;-74
2022/06/13 02:05:16;;;;;;;10.48;5.38;;;12.80;99.90;;;;;;5033876;28;20111;-74
2022/06/13 02:07:50;;;;;;;10.88;5.85;;;12.80;99.90;;;;;;5034178;28;20053;-74
2022/06/13 02:10:20;;;;;;;10.65;5.30;;;12.80;99.90;;;;;;5034206;28;20452;-74
2022/06/13 02:12:56;;;;;;;11.93;5.28;;;12.80;99.90;;;;;;5033895;28;20047;-74
2022/06/13 02:15:30;;;;;;;12.05;5.63;;;12.90;99.90;;;;;;5033827;28;20510;-74
2022/06/13 02:18:02;;;;;;;11.52;5.38;;;12.80;99.90;;;;;;5017406;28;20509;-74
2022/06/13 02:20:36;;;;;;;;;;;12.90;99.90;;;;;;5034618;28;20128;-74
2022/06/13 02:23:06;;;;;;;10.20;5.35;;;12.80;99.90;;;;;;5017054;28;20286;-74
2022/06/13 02:25:43;;;;;;;11.52;5.40;;;12.80;99.90;;;;;;5033449;28;20048;-74
2022/06/13 02:28:23;;;;;;;10.85;5.82;;;12.80;99.90;;;;;;5017530;28;20371;-74
2022/06/13 02:30:56;;;;;;;10.57;6.10;;;12.80;99.90;;;;;;5033929;28;20041;-74
2022/06/13 02:33:31;;;;;;;10.43;5.68;;;12.80;99.90;;;;;;5017028;28;20048;-74
2022/06/13 02:36:04;;;;;;;11.70;5.30;;;12.70;99.90;;;;;;5033584;28;20041;-74
2022/06/13 02:38:56;;;;;;;10.27;6.10;;;12.70;99.90;;;;;;5033520;28;20127;-74
2022/06/13 02:41:25;;;;;;;12.15;5.95;;;12.70;99.90;;;;;;5033386;28;20059;-74
2022/06/13 02:44:02;;;;;;;11.77;6.25;;;12.70;99.90;;;;;;5033280;28;20080;-74
2022/06/13 02:46:47;;;;;;;11.13;6.05;;;12.60;99.90;;;;;;5033298;28;20533;-74
2022/06/13 02:49:21;;;;;;;12.07;5.53;;;12.70;99.90;;;;;;5033262;28;20045;-74
2022/06/13 02:51:51;;;;;;;14.68;6.43;;;12.70;99.90;;;;;;5033146;28;20052;-74
2022/06/13 02:54:32;;;;;;;12.55;6.53;;;12.70;99.90;;;;;;5033466;28;20206;-74
2022/06/13 02:57:27;;;;;;;12.45;6.25;;;12.70;99.90;;;;;;5016766;28;20494;-74
2022/06/13 03:00:17;;;;;;;13.40;6.07;;;12.80;99.90;;;;;;5050995;28;20041;-74
2022/06/13 03:02:54;;;;;;;12.30;6.00;;;12.80;99.90;;;;;;5033091;28;20163;-74
2022/06/13 03:05:38;;;;;;;12.32;5.97;;;12.80;99.90;;;;;;5016324;28;20045;-74
2022/06/13 03:08:16;;;;;;;11.77;6.57;;;12.80;99.90;;;;;;5032947;28;20132;-74
2022/06/13 03:10:54;;;;;;;10.40;6.60;;;12.80;99.90;;;;;;5033278;28;20045;-74
2022/06/13 03:13:57;;;;;;;13.35;6.72;;;12.80;99.90;;;;;;5032188;28;20040;-74
2022/06/13 03:16:22;;;;;;;;;;;12.80;99.90;;;;;;5033150;28;20037;-74
2022/06/13 03:18:55;;;;;;;14.73;6.25;;;12.80;99.90;;;;;;5016576;28;19920;-74
2022/06/13 03:21:33;;;;;;;11.25;6.65;;;12.80;99.90;;;;;;5016192;28;20047;-74
2022/06/13 03:24:23;;;;;;;15.00;6.22;;;12.90;99.90;;;;;;5032571;28;20053;-74
2022/06/13 03:26:55;;;;;;;14.43;6.55;;;12.90;99.90;;;;;;5031839;28;20087;-74
2022/06/13 03:29:33;;;;;;;11.90;6.88;;;12.90;99.90;;;;;;5032755;28;20371;-74
2022/06/13 03:32:10;;;;;;;12.23;7.22;;;12.90;99.90;;;;;;5032119;28;20041;-74
2022/06/13 03:34:43;;;;;;;14.05;6.68;;;13.00;99.90;;;;;;5032080;28;20105;-74
2022/06/13 03:37:19;;;;;;;12.75;6.65;;;13.00;99.90;;;;;;5032128;28;20053;-74
2022/06/13 03:39:52;;;;;;;12.00;6.88;;;13.00;99.90;;;;;;5032529;28;20049;-74
2022/06/13 03:42:27;;;;;;;13.40;6.25;;;13.10;99.90;;;;;;5032830;28;20037;-74
2022/06/13 03:45:19;;;;;;;12.77;6.88;;;13.10;99.90;;;;;;5015929;28;20049;-74
2022/06/13 03:47:52;;;;;;;13.05;6.07;;;13.10;99.90;;;;;;5015820;28;20072;-74
2022/06/13 03:50:29;;;;;;;16.42;7.05;;;13.20;99.90;;;;;;5032645;28;20120;-74
2022/06/13 03:53:17;;;;;;;11.52;6.43;;;13.20;99.90;;;;;;5032132;28;20029;-74
2022/06/13 03:56:15;;;;;;;15.90;7.68;;;13.20;99.90;;;;;;5032514;28;20410;-74
2022/06/13 03:58:52;;;;;;;12.98;6.95;;;13.30;99.90;;;;;;5026518;28;20060;-74
2022/06/13 04:01:20;;;;;;;15.57;7.25;;;13.30;99.90;;;;;;5032413;28;20099;-74
2022/06/13 04:03:46;;;;;;;14.82;7.82;;;13.30;99.90;;;;;;5015802;28;20132;-74
2022/06/13 04:06:51;;;;;;;15.02;7.43;;;13.40;99.90;;;;;;5032046;28;20116;-74
2022/06/13 04:09:24;;;;;;;13.85;6.75;;;13.50;99.90;;;;;;4955756;28;20042;-74
2022/06/13 04:12:05;;;;;;;15.38;6.50;;;13.50;99.90;;;;;;4955824;28;20507;-74
2022/06/13 04:14:52;;;;;;;13.53;7.53;;;13.50;99.90;;;;;;4993081;28;20059;-74
2022/06/13 04:17:40;;;;;;;13.02;6.72;;;13.60;99.90;;;;;;5032328;28;20383;-74
2022/06/13 04:20:30;;;;;;;13.88;6.50;;;13.60;99.90;;;;;;5032339;28;20136;-74
2022/06/13 04:23:08;;;;;;;14.05;5.97;;;13.60;99.90;;;;;;5031590;28;20527;-74
2022/06/13 04:25:55;;;;;;;13.82;5.30;;;13.60;99.90;;;;;;5034404;28;20055;-74
2022/06/13 04:28:28;;;;;;;11.48;5.45;;;13.70;99.90;;;;;;5035850;28;20036;-74
2022/06/13 04:30:55;;;;;;;11.10;4.97;;;13.70;99.90;;;;;;5035821;28;20032;-74
2022/06/13 04:33:33;;;;;;;12.48;5.13;;;13.70;99.90;;;;;;5035989;28;20063;-75
2022/06/13 04:36:00;;;;;;;10.70;4.43;;;13.80;99.90;;;;;;5036097;28;20044;-74
2022/06/13 04:38:27;;;;;;;9.10;4.47;;;13.80;99.90;;;;;;5019138;28;20044;-74
2022/06/13 04:40:57;;;;;;;9.10;4.20;;;13.90;99.90;;;;;;5035949;28;20433;-74
2022/06/13 04:43:28;;;;;;;10.93;4.50;;;14.10;99.90;;;;;;5035300;28;20040;-74
2022/06/13 04:46:05;;;;;;;11.60;4.50;;;14.20;99.90;;;;;;5035961;28;20048;-74
2022/06/13 04:48:32;;;;;;;9.52;3.90;;;14.30;99.90;;;;;;5019099;28;20505;-74
2022/06/13 04:51:01;;;;;;;10.55;3.80;;;14.30;99.90;;;;;;5035743;28;20390;-74
2022/06/13 04:53:36;;;;;;;7.63;3.72;;;14.40;99.90;;;;;;5035234;28;20490;-74
2022/06/13 04:56:01;;;;;;;9.73;3.90;;;14.40;99.90;;;;;;5035337;28;20123;-74
2022/06/13 04:58:36;;;;;;;10.95;3.40;;;14.40;99.90;;;;;;5035324;28;20049;-73
2022/06/13 05:01:25;;;;;;;10.50;3.70;;;14.50;99.90;;;;;;5035379;28;20052;-73
2022/06/13 05:03:52;;;;;;;8.68;3.13;;;14.50;99.90;;;;;;5035116;28;20040;-73
2022/06/13 05:06:37;;;;;;;7.35;2.78;;;14.60;99.90;;;;;;5035255;28;20094;-72
2022/06/13 05:09:31;;;;;;;14.70;3.53;;;14.80;99.90;;;;;;5035267;28;20099;-74
2022/06/13 05:12:24;;;;;;;7.40;2.90;;;15.00;99.90;;;;;;5029322;28;20063;-73
2022/06/13 05:15:14;;;;;;;8.38;2.47;;;15.10;99.90;;;;;;5018931;28;20390;-73
2022/06/13 05:18:10;;;;;;;5.00;2.63;;;15.30;99.90;;;;;;5035159;28;20450;-74
2022/06/13 05:21:14;;;;;;;6.57;2.63;;;15.50;99.90;;;;;;5018607;28;20048;-73
2022/06/13 05:23:58;;;;;;;8.63;2.28;;;15.70;99.90;;;;;;5034718;28;20055;-73
2022/06/13 05:26:29;;;;;;;6.68;2.50;;;15.70;99.90;;;;;;5034811;28;20121;-73
2022/06/13 05:28:55;;;;;;;6.45;2.65;;;15.60;99.90;;;;;;5034747;28;20060;-73
2022/06/13 05:31:21;;;;;;;5.35;1.95;;;15.60;99.90;;;;;;5035025;28;20044;-73
2022/06/13 05:33:50;;;;;;;5.10;1.90;;;15.50;99.90;;;;;;5018073;28;20052;-73
2022/06/13 05:36:18;;;;;;;6.65;1.83;;;15.10;99.90;;;;;;5034018;28;20041;-73
2022/06/13 05:38:50;;;;;;;6.18;1.95;;;15.00;99.90;;;;;;5034721;28;20132;-73
2022/06/13 05:41:16;;;;;;;;;;;15.00;99.90;;;;;;5035167;28;20044;-73
2022/06/13 05:43:42;;;;;;;4.45;1.52;;;14.90;99.90;;;;;;5034308;28;20370;-73
2022/06/13 05:46:12;;;;;;;3.47;0.98;;;14.90;99.90;;;;;;5034648;28;20080;-74
2022/06/13 05:48:38;;;;;;;2.83;1.13;;;15.20;99.90;;;;;;5034439;28;20820;-75
2022/06/13 05:51:04;;;;;;;3.20;1.27;;;15.50;99.90;;;;;;5034380;28;20120;-75
2022/06/13 05:53:29;;;;;;;3.55;1.17;;;15.80;99.90;;;;;;5034286;28;20081;-75
2022/06/13 05:55:59;;;;;;;2.92;1.00;;;16.40;99.90;;;;;;5017872;28;20123;-75
2022/06/13 05:58:25;;;;;;;2.30;0.98;;;17.10;99.90;;;;;;5034033;28;20118;-75
2022/06/13 06:01:01;;;;;;;2.75;1.10;;;17.60;99.90;;;;;;5034561;28;20459;-74
2022/06/13 06:03:27;;;;;;;3.95;1.08;;;18.60;99.90;;;;;;5017884;28;20048;-75
2022/06/13 06:05:54;;;;;;;4.05;1.25;;;20.00;99.90;;;;;;5034366;28;20071;-75
2022/06/13 06:08:25;;;;;;;3.10;1.17;;;21.40;98.50;;;;;;5017457;28;20041;-75
2022/06/13 06:10:54;;;;;;;2.85;1.13;;;22.30;96.30;;;;;;5017473;28;20047;-75
2022/06/13 06:13:20;;;;;;;3.40;1.23;;;23.30;94.70;;;;;;5033890;28;20037;-75
2022/06/13 06:15:47;;;;;;;2.45;1.20;;;24.10;93.00;;;;;;5052037;28;20037;-75
2022/06/13 06:18:13;;;;;;;3.78;1.17;;;24.80;94.60;;;;;;5033917;28;20037;-75
2022/06/13 06:20:39;;;;;;;5.38;1.00;;;24.70;87.20;;;;;;5017312;28;20482;-75
2022/06/13 06:23:06;;;;;;;2.78;1.00;;;;;;;;;;5033565;28;20094;-75
2022/06/13 06:25:32;;;;;;;3.05;1.10;;;25.70;85.20;;;;;;5016890;28;20398;-75
2022/06/13 06:27:58;;;;;;;1.98;0.98;;;24.80;82.50;;;;;;5033739;28;20376;-75
2022/06/13 06:30:26;;;;;;;4.18;1.15;;;24.20;83.10;;;;;;5033557;28;20502;-75
2022/06/13 06:32:56;;;;;;;4.07;1.00;;;23.90;83.60;;;;;;5017145;28;20032;-75
2022/06/13 06:35:24;;;;;;;5.88;1.13;;;24.10;80.20;;;;;;5033741;28;20163;-75
2022/06/13 06:37:51;;;;;;;4.10;1.00;;;24.10;84.00;;;;;;5033459;28;20075;-75
2022/06/13 06:40:19;;;;;;;2.33;0.90;;;24.60;82.00;;;;;;5033427;28;20394;-75
2022/06/13 06:42:44;;;;;;;2.70;0.93;;;24.90;81.10;;;;;;5033351;28;20044;-74
2022/06/13 06:45:11;;;;;;;3.70;1.10;;;24.30;82.10;;;;;;5033223;28;20471;-75
2022/06/13 06:47:39;;;;;;;2.97;0.90;;;23.90;82.70;;;;;;5016534;28;20052;-74
2022/06/13 06:50:15;;;;;;;3.47;0.90;;;23.30;81.90;;;;;;5032520;28;20130;-74
2022/06/13 06:52:42;;;;;;;4.20;1.10;;;22.50;85.30;;;;;;5033444;28;20482;-74
2022/06/13 07:00:43;;;;;;;3.47;0.75;;;20.80;91.20;;;;;;5032810;28;20516;-74
2022/06/13 07:03:08;;;;;;;4.00;1.25;;;20.30;93.20;;;;;;5016864;28;20122;-74
2022/06/13 07:05:34;;;;;;;3.70;1.10;;;20.10;93.60;;;;;;5016579;28;20459;-74
2022/06/13 07:07:59;;;;;;;4.30;1.15;;;19.80;94.50;;;;;;5033231;28;20041;-74
2022/06/13 07:10:25;;;;;;;3.75;0.93;;;19.50;96.60;;;;;;5032863;28;20041;-74
2022/06/13 07:12:50;;;;;;;4.97;1.17;;;19.70;96.60;;;;;;5016390;28;20037;-74
2022/06/13 07:15:18;;;;;;;4.22;1.23;;;19.60;97.00;;;;;;5032997;28;20491;-74
2022/06/13 07:17:43;;;;;;;5.60;1.52;;;19.90;97.90;;;;;;5032980;28;20121;-74
2022/06/13 07:20:11;;;;;;;4.22;1.42;;;20.70;96.00;;;;;;5016269;28;20522;-74
2022/06/13 07:22:37;;;;;;;5.72;1.60;;;21.30;95.00;;;;;;5016202;28;20083;-74
2022/06/13 07:25:03;;;;;;;4.63;1.45;;;22.50;93.40;;;;;;5032308;28;20095;-74
2022/06/13 07:27:28;;;;;;;3.55;1.38;;;23.50;91.70;;;;;;5032788;28;20053;-74
2022/06/13 07:29:54;;;;;;;5.10;1.52;;;24.40;90.10;;;;;;5032551;28;20487;-74
2022/06/13 07:32:23;;;;;;;3.65;1.10;;;25.30;86.00;;;;;;5032531;28;20120;-75
2022/06/13 07:34:51;;;;;;;3.15;1.00;;;25.80;83.40;;;;;;5032739;28;20045;-75
2022/06/13 07:40:07;;;;;;;3.85;1.40;;;;;;;;;;4992122;28;20430;-74
2022/06/13 07:42:41;;;;;;;3.08;1.40;;;26.80;77.30;;;;;;5032717;28;20665;-75
2022/06/13 07:45:11;;;;;;;5.63;1.77;;;27.20;76.00;;;;;;5015801;28;20049;-74
2022/06/13 07:47:36;;;;;;;4.10;1.50;;;27.10;74.50;;;;;;5032443;28;20040;-75
2022/06/13 07:50:02;;;;;;;3.17;1.00;;;27.30;72.90;;;;;;5015863;28;20052;-74
2022/06/13 07:52:28;;;;;;;3.50;1.13;;;27.50;69.10;;;;;;5032456;28;20467;-74
2022/06/13 07:54:54;;;;;;;4.70;1.10;;;27.50;71.80;;;;;;5032270;28;20405;-74
2022/06/13 07:57:19;;;;;;;6.13;1.40;;;27.10;71.10;;;;;;5015705;28;20135;-74
2022/06/13 07:59:45;;;;;;;4.22;0.90;;;26.70;69.10;;;;;;5033258;28;20037;-74
2022/06/13 08:02:18;;;;;;;3.25;1.02;;;26.30;70.70;;;;;;5036126;28;20067;-74
2022/06/13 08:04:44;;;;;;;3.33;1.13;;;25.30;70.40;;;;;;5036424;28;20134;-74
2022/06/13 08:07:11;;;;;;;2.70;1.10;;;23.70;73.80;;;;;;5036299;28;20048;-74
2022/06/13 08:09:37;;;;;;;4.18;1.13;;;22.90;76.80;;;;;;5036699;28;20438;-74
2022/06/13 08:12:06;;;;;;;3.83;1.23;;;22.20;77.90;;;;;;5019622;28;20115;-74
2022/06/13 08:14:31;;;;;;;3.25;1.25;;;21.30;81.80;;;;;;5019743;28;20510;-74
2022/06/13 08:16:57;;;;;;;4.32;1.20;;;20.80;82.80;;;;;;5036024;28;20134;-74
2022/06/13 08:19:22;;;;;;;5.65;1.40;;;20.30;85.60;;;;;;5036127;28;20056;-74
2022/06/13 08:21:49;;;;;;;4.97;1.10;;;20.10;89.30;;;;;;5035997;28;20179;-74
2022/06/13 08:24:16;;;;;;;4.90;1.17;;;19.50;91.60;;;;;;5035780;28;20057;-74
2022/06/13 08:26:42;;;;;;;4.05;1.05;;;19.50;92.40;;;;;;5019220;28;20414;-74
2022/06/13 08:29:08;;;;;;;8.02;1.42;;;19.30;92.40;;;;;;5036401;28;20080;-74
2022/06/13 08:31:35;;;;;;;4.22;1.10;;;19.50;93.30;;;;;;5035735;28;20041;-74
2022/06/13 08:34:01;;;;;;;5.32;1.27;;;18.80;93.80;;;;;;5035827;28;20079;-74
2022/06/13 08:36:26;;;;;;;4.30;1.13;;;18.80;94.10;;;;;;5035659;28;20040;-74
2022/06/13 08:38:52;;;;;;;5.70;1.60;;;18.60;94.00;;;;;;5035581;28;20045;-74
2022/06/13 08:41:45;;;;;;;5.05;1.33;;;18.50;94.60;;;;;;5035679;28;20542;-74
2022/06/13 08:44:22;;;;;;;4.20;1.10;;;18.70;93.50;;;;;;5035787;28;20407;-74
2022/06/13 08:47:23;;;;;;;3.50;0.80;;;18.90;93.80;;;;;;5035457;28;20033;-74
2022/06/13 08:49:57;;;;;;;4.50;0.70;;;19.00;93.80;;;;;;5018889;28;20494;-74
2022/06/13 08:52:37;;;;;;;4.03;0.90;;;19.00;94.10;;;;;;5035394;28;20080;-74
2022/06/13 08:55:42;;;;;;;4.72;1.00;;;18.80;93.20;;;;;;5035560;28;20056;-74
2022/06/13 08:58:18;;;;;;;3.75;0.90;;;18.80;93.50;;;;;;4958654;28;20134;-74
2022/06/13 09:00:50;;;;;;;3.42;0.75;;;18.80;92.70;;;;;;5026813;28;20502;-74
2022/06/13 09:03:38;;;;;;;5.57;0.90;;;18.80;93.70;;;;;;5035442;28;20045;-74
2022/06/13 09:06:14;;;;;;;3.22;0.93;;;18.80;92.90;;;;;;5034648;28;20049;-75
2022/06/13 09:09:04;;;;;;;4.68;1.10;;;18.70;92.00;;;;;;5035125;28;20033;-74
2022/06/13 09:11:37;;;;;;;3.10;0.70;;;18.70;93.50;;;;;;5034289;28;20044;-74
2022/06/13 09:14:18;;;;;;;2.50;1.00;;;19.00;93.80;;;;;;5035354;28;20053;-75
2022/06/13 09:16:54;;;;;;;3.50;0.90;;;19.30;91.60;;;;;;5035111;28;20048;-75
2022/06/13 09:19:23;;;;;;;3.55;1.10;;;19.40;91.50;;;;;;5035249;28;20049;-74
2022/06/13 09:22:24;;;;;;;5.70;1.35;;;19.40;91.60;;;;;;5034961;28;20040;-74
2022/06/13 09:25:08;;;;;;;4.90;1.05;;;19.00;91.70;;;;;;5001825;28;20080;-74
2022/06/13 09:27:45;;;;;;;5.47;0.93;;;18.90;92.70;;;;;;5018441;28;20076;-75
2022/06/13 09:30:10;;;;;;;4.70;0.98;;;18.80;91.20;;;;;;5035047;28;20053;-74
2022/06/13 09:32:53;;;;;;;5.15;0.90;;;18.90;92.70;;;;;;5034712;28;20397;-74
2022/06/13 09:35:22;;;;;;;3.65;0.90;;;19.20;92.20;;;;;;5018364;28;20040;-74
2022/06/13 09:38:24;;;;;;;2.97;0.70;;;19.20;91.60;;;;;;5034749;28;20044;-74
2022/06/13 09:41:03;;;;;;;4.00;0.70;;;19.00;90.90;;;;;;5034963;28;20534;-74
2022/06/13 09:44:01;;;;;;;5.13;1.08;;;18.70;90.80;;;;;;5034269;28;20045;-75
2022/06/13 09:46:39;;;;;;;2.47;0.93;;;18.70;91.80;;;;;;5018084;28;20041;-74
2022/06/13 09:49:24;;;;;;;4.50;0.95;;;18.60;93.10;;;;;;5034511;28;20099;-75
2022/06/13 09:52:10;;;;;;;4.47;1.00;;;18.70;91.80;;;;;;5034713;28;20037;-74
2022/06/13 09:54:59;;;;;;;2.30;1.05;;;18.90;93.00;;;;;;5018325;28;20057;-74
2022/06/13 09:57:54;;;;;;;4.45;1.30;;;19.20;92.20;;;;;;5017567;28;20048;-74
2022/06/13 10:00:51;;;;;;;3.58;0.85;;;19.20;90.30;;;;;;5009810;28;20063;-74
2022/06/13 10:03:50;;;;;;;3.95;1.00;;;19.40;91.30;;;;;;5013246;28;20183;-75
2022/06/13 10:06:25;;;;;;;4.43;1.00;;;19.70;92.20;;;;;;5034440;28;20041;-74
2022/06/13 10:08:57;;;;;;;5.18;1.17;;;19.80;91.80;;;;;;5034023;28;20073;-74
2022/06/13 10:11:28;;;;;;;4.50;1.73;;;19.50;92.90;;;;;;5034050;28;20040;-75
2022/06/13 10:14:06;;;;;;;6.55;1.50;;;19.30;93.60;;;;;;5033893;28;20087;-75
2022/06/13 10:16:46;;;;;;;6.20;1.38;;;19.10;94.20;;;;;;5034223;28;20375;-74
2022/06/13 10:19:50;;;;;;;3.55;1.23;;;19.00;94.00;;;;;;5033790;28;20060;-74
2022/06/13 10:22:27;;;;;;;5.43;1.00;;;19.00;95.00;;;;;;5033467;28;20045;-75
2022/06/13 10:25:09;;;;;;;5.47;1.20;;;19.20;95.40;;;;;;5033475;28;20088;-75
2022/06/13 10:28:10;;;;;;;5.47;1.40;;;19.50;96.00;;;;;;5033787;28;20080;-74
2022/06/13 10:30:45;;;;;;;4.68;1.02;;;19.50;91.10;;;;;;5033623;28;20049;-74
2022/06/13 10:33:21;;;;;;;4.50;1.20;;;19.40;92.20;;;;;;5033465;28;20044;-74
2022/06/13 10:35:58;;;;;;;4.13;1.23;;;19.30;90.90;;;;;;5017002;28;20040;-75
2022/06/13 10:38:32;;;;;;;3.78;1.00;;;19.70;92.10;;;;;;5047825;22;20395;-75
2022/06/13 10:40:58;;;;;;;3.42;0.82;;;19.90;91.50;;;;;;5033548;28;20140;-76
2022/06/13 10:43:25;;;;;;;2.58;1.08;;;19.60;90.90;;;;;;5016789;28;20191;-76
2022/06/13 10:45:50;;;;;;;3.42;1.00;;;19.50;91.60;;;;;;5033349;28;20041;-75
2022/06/13 10:48:25;;;;;;;3.90;0.95;;;19.30;91.70;;;;;;5016726;28;20048;-76
2022/06/13 10:51:03;;;;;;;3.78;1.00;;;19.20;92.30;;;;;;5033278;28;20561;-75
2022/06/13 10:53:49;;;;;;;5.10;1.33;;;19.50;93.70;;;;;;5033129;28;20037;-75
2022/06/13 10:56:25;;;;;;;3.53;1.10;;;19.70;92.60;;;;;;5033526;28;20036;-76
2022/06/13 10:58:56;;;;;;;5.10;1.02;;;19.90;92.00;;;;;;5033229;28;20080;-75
2022/06/13 11:01:30;;;;;;;6.13;1.40;;;19.80;92.30;;;;;;5033206;28;20083;-75
2022/06/13 11:04:16;;;;;;;5.85;1.38;;;19.80;92.80;;;;;;5033025;28;20037;-75
2022/06/13 11:06:47;;;;;;;6.57;1.58;;;19.90;92.80;;;;;;5016556;28;20041;-75
2022/06/13 11:09:44;;;;;;;5.45;1.33;;;19.80;92.70;;;;;;5016738;28;20044;-75
2022/06/13 11:12:38;;;;;;;4.88;1.52;;;20.00;92.90;;;;;;5033213;28;20067;-75
2022/06/13 11:23:57;;;;;;;5.88;1.60;;;19.90;92.90;;;;;;5032750;28;20398;-75
2022/06/13 11:29:15;;;;;;;4.38;1.13;;;19.20;92.70;;;;;;5032812;28;20041;-76
2022/06/13 11:31:56;;;;;;;5.87;1.80;;;19.20;93.90;;;;;;5032803;28;20040;-75
2022/06/13 11:34:29;;;;;;;6.03;1.70;;;19.00;94.30;;;;;;5032312;28;20068;-75
2022/06/13 11:37:03;;;;;;;5.68;1.98;;;19.10;93.30;;;;;;5032788;28;20299;-76
2022/06/13 11:39:42;;;;;;;5.30;1.65;;;19.10;92.80;;;;;;5032309;28;20067;-76
2022/06/13 11:42:27;;;;;;;4.95;1.60;;;19.20;93.20;;;;;;5032660;28;20394;-76
2022/06/13 11:45:26;;;;;;;5.80;1.30;;;19.50;92.70;;;;;;5032311;28;20049;-75
2022/06/13 11:47:52;;;;;;;6.90;1.25;;;19.80;92.80;;;;;;5027035;28;20064;-76
2022/06/13 11:50:25;;;;;;;8.70;1.55;;;19.90;93.30;;;;;;5032667;28;20041;-76
2022/06/13 11:55:54;;;;;;;6.45;1.45;;;20.30;92.80;;;;;;5032126;28;20076;-75
2022/06/13 11:58:27;;;;;;;6.35;1.42;;;20.40;92.10;;;;;;5032511;28;20063;-75
2022/06/13 12:01:02;;;;;;;7.85;1.30;;;20.30;91.70;;;;;;5032104;28;20124;-76
2022/06/13 12:03:28;;;;;;;7.47;1.48;;;20.40;90.90;;;;;;5032165;28;20041;-76
2022/06/13 12:06:06;;;;;;;7.47;1.67;;;19.40;91.50;;;;;;5015764;28;20383;-75
2022/06/13 12:08:32;;;;;;;7.03;2.00;;;19.10;92.10;;;;;;5032203;28;20037;-75
2022/06/13 12:11:20;;;;;;;8.13;1.83;;;19.10;93.60;;;;;;5032196;28;20116;-76
2022/06/13 12:13:48;;;;;;;9.98;1.98;;;19.00;93.40;;;;;;5015777;28;20076;-75
2022/06/13 12:16:34;;;;;;;4.97;1.42;;;18.90;93.80;;;;;;5032055;28;20045;-76
2022/06/13 12:19:07;;;;;;;6.50;1.42;;;18.90;93.30;;;;;;5032060;28;20051;-75
2022/06/13 12:21:43;;;;;;;6.55;1.83;;;18.30;92.00;;;;;;5015455;28;20040;-75
2022/06/13 12:24:12;;;;;;;8.45;1.63;;;18.60;94.20;;;;;;5032199;28;20430;-76
2022/06/13 12:26:43;;;;;;;7.90;1.73;;;18.60;94.10;;;;;;5031730;28;20048;-75
2022/06/13 12:29:21;;;;;;;5.38;1.40;;;18.60;92.80;;;;;;5015799;28;20051;-74
2022/06/13 12:32:00;;;;;;;7.47;1.77;;;18.70;93.20;;;;;;5031867;28;20041;-74
2022/06/13 12:34:48;;;;;;;4.88;1.10;;;18.70;91.80;;;;;;5031832;28;20052;-76
2022/06/13 12:37:24;;;;;;;4.25;1.48;;;18.40;92.10;;;;;;5031950;28;20040;-74
2022/06/13 12:40:26;;;;;;;5.82;1.35;;;18.80;93.20;;;;;;5031800;28;20072;-74
2022/06/13 12:43:36;;;;;;;5.47;1.48;;;19.20;92.50;;;;;;5031930;28;20053;-75
2022/06/13 12:46:44;;;;;;;5.65;1.67;;;19.10;91.50;;;;;;5018021;28;20402;-75
2022/06/13 12:49:36;;;;;;;5.05;1.40;;;18.90;91.00;;;;;;5007768;28;20053;-75
2022/06/13 12:52:34;;;;;;;5.85;1.45;;;18.80;91.90;;;;;;5035469;28;20155;-76
2022/06/13 12:55:12;;;;;;;4.63;1.30;;;18.60;91.70;;;;;;5010126;28;20045;-75
2022/06/13 12:58:15;;;;;;;6.63;1.40;;;18.70;91.40;;;;;;5019055;28;20068;-75
2022/06/13 13:00:48;;;;;;;4.00;1.25;;;18.30;92.40;;;;;;5035227;28;20045;-76
2022/06/13 13:03:28;;;;;;;4.90;1.25;;;18.50;93.50;;;;;;5035360;28;20041;-75
2022/06/13 13:06:08;;;;;;;5.65;1.40;;;18.80;93.30;;;;;;5035487;28;20368;-75
2022/06/13 13:08:48;;;;;;;6.15;1.45;;;18.90;92.20;;;;;;5035294;28;20036;-75
2022/06/13 13:11:35;;;;;;;7.90;1.58;;;19.00;91.70;;;;;;5035176;28;20135;-75
2022/06/13 13:14:40;;;;;;;5.43;1.20;;;19.00;92.10;;;;;;5018491;28;20047;-75
2022/06/13 13:17:27;;;;;;;6.75;1.08;;;18.70;91.70;;;;;;5034878;28;20498;-74
2022/06/13 13:20:14;;;;;;;6.70;1.55;;;18.40;92.30;;;;;;5035056;28;20383;-76
2022/06/13 13:22:50;;;;;;;5.57;0.95;;;18.50;93.40;;;;;;5034936;28;20048;-75
2022/06/13 13:25:27;;;;;;;4.18;1.10;;;18.40;94.30;;;;;;5034920;28;20098;-74
2022/06/13 13:28:26;;;;;;;7.28;1.40;;;18.40;94.50;;;;;;5018535;28;20643;-75
2022/06/13 13:31:05;;;;;;;9.13;1.30;;;18.10;92.80;;;;;;5018396;28;20394;-75
2022/06/13 13:33:46;;;;;;;3.45;1.10;;;18.10;94.40;;;;;;5034780;28;20044;-75
2022/06/13 13:36:44;;;;;;;6.95;1.30;;;18.40;95.10;;;;;;5034946;28;20367;-75
2022/06/13 13:39:23;;;;;;;4.95;1.10;;;18.50;93.80;;;;;;5034514;28;20132;-76
2022/06/13 13:42:01;;;;;;;6.07;1.33;;;18.70;92.50;;;;;;5034899;28;20041;-74
2022/06/13 13:44:47;;;;;;;6.25;1.73;;;18.70;93.00;;;;;;5034707;28;20483;-74
2022/06/13 13:47:18;;;;;;;5.75;1.13;;;18.60;92.00;;;;;;5034627;28;20138;-76
2022/06/13 13:50:02;;;;;;;5.83;1.03;;;18.60;93.20;;;;;;5034498;28;20139;-74
2022/06/13 13:52:42;;;;;;;7.78;1.30;;;18.60;93.70;;;;;;5034745;28;20155;-75
2022/06/13 13:55:24;;;;;;;4.60;1.23;;;18.40;92.90;;;;;;5034443;28;20047;-76
2022/06/13 13:57:59;;;;;;;4.63;0.98;;;18.80;93.60;;;;;;5033979;28;20041;-75
2022/06/13 14:00:43;;;;;;;6.13;1.20;;;18.60;92.00;;;;;;5034608;28;20052;-74